Acorn, Arkansas
Current Conditions -  °F | °C
As of 3:15 PM on Saturday 22 Nov 2014 (Local Time) from KMEZ Reporting Station
Overcast Overcast  
Wind Chill: 59°   Ceiling: 2700
Heat Index: 59°   Visibility: 7mi
Dew Point: 55°   Wind: 0mph
Humidity: 88%   Direction: NA
Pressure: 29.98"   Gusts: NA
Location:  34.592°N, 94.1901°W
Report Text: KMEZ 222115Z AUTO 00000KT 7SM OVC027 15/13 A2998 RMK AO2
Loading
Personal Weather Stations






























Interactive Weather Map New forecast layout! Learn more

10-Day Weather Forecast

Advertisements
Track Severe Weather on mobile